Latest Weather Observations for Cessnock Airport

IDN60801

Issued at 1:33 pm EST Monday 2 May 2016 (issued every 30 minutes, with the page automatically refreshed every 10 minutes)

About weather observations | Map of weather stations | Latest weather observations for NSW | Other Formats
Station Details ID: 061260 Name: CESSNOCK AIRPORT AWS Lat: -32.79 Lon: 151.34 Height: 61.0 m
Data from the previous 72 hours. | See also: Recent months at Cessnock Airport
Date/Time
EST
Temp
°C
App
Temp
°C
Dew
Point
Rel
Hum
%
Delta-T
°C
Wind Press
QNH
hPa
Press
MSL
hPa
Rain
since 9 am
mm
Dir
 
Spd
km/h
Gust
km/h
Spd
kts
Gust
kts
02/01:30pm 24.2 22.0 12.2 47 6.9 NW 15 20 8 11 1012.4 1012.4 0.0
02/01:00pm 24.2 22.0 13.4 51 6.3 NNW 17 26 9 14 1012.9 1012.9 0.0
02/12:30pm 24.2 22.5 13.7 52 6.2 NW 15 24 8 13 1013.3 1013.3 0.0
02/12:00pm 23.6 23.0 15.6 61 4.8 NNW 13 19 7 10 1014.2 1014.2 0.0
02/11:30am 23.4 23.5 15.5 61 4.8 N 9 15 5 8 1014.5 1014.5 0.0
02/11:00am 23.1 22.5 15.7 63 4.5 NNW 13 19 7 10 1015.1 1015.1 0.0
02/10:30am 22.6 21.9 15.4 64 4.3 NNW 13 19 7 10 1015.6 1015.6 0.0
02/10:00am 20.9 21.1 15.7 72 3.1 N 9 15 5 8 1016.3 1016.3 0.0
02/09:30am 20.0 20.1 15.4 75 2.7 NNW 9 13 5 7 1016.8 1016.8 0.0
02/09:00am 19.2 20.1 16.1 82 1.9 NNE 6 9 3 5 1017.1 1017.1 1.6
02/08:30am 17.0 18.7 15.2 89 1.0 CALM 0 0 0 0 1017.2 1017.2 1.6
02/08:00am 14.8 16.2 14.3 97 0.3 CALM 0 0 0 0 1017.4 1017.4 1.6
02/07:30am 13.1 14.0 12.9 99 0.1 CALM 0 6 0 3 1017.3 1017.3 1.6
02/07:00am 10.9 9.8 10.7 99 0.1 WSW 7 11 4 6 1017.0 1017.0 1.6
02/06:30am 10.4 10.5 10.1 98 0.2 CALM 0 0 0 0 1016.9 1016.9 1.6
02/06:00am 10.2 10.2 9.7 97 0.3 CALM 0 0 0 0 1016.6 1016.6 1.6
02/05:30am 12.2 12.8 11.9 98 0.2 CALM 0 0 0 0 1016.5 1016.5 1.6
02/05:00am 12.2 11.1 11.9 98 0.2 SW 9 11 5 6 1016.1 1016.1 1.6
02/04:30am 11.8 12.3 11.5 98 0.2 CALM 0 6 0 3 1015.7 1015.7 1.6
02/04:00am 12.1 12.6 11.5 96 0.3 CALM 0 0 0 0 1015.7 1015.7 1.6
02/03:30am 12.3 12.8 11.5 95 0.4 CALM 0 0 0 0 1015.5 1015.5 1.6
02/03:00am 13.5 13.1 12.9 96 0.3 WSW 7 9 4 5 1015.4 1015.4 1.6
02/02:30am 13.9 13.6 12.6 92 0.7 SW 6 9 3 5 1015.3 1015.3 1.6
02/02:00am 16.2 15.8 14.0 87 1.2 NNW 9 11 5 6 1015.3 1015.3 1.6
02/01:30am 17.4 16.9 14.9 85 1.5 N 11 15 6 8 1015.1 1015.1 1.6
02/01:00am 17.3 16.2 15.3 88 1.2 N 15 19 8 10 1015.0 1015.0 1.6
02/12:30am 17.2 16.4 15.0 87 1.3 N 13 15 7 8 1015.1 1015.1 1.6
02/12:00am 18.3 18.8 15.0 81 1.9 NW 6 11 3 6 1015.2 1015.2 1.6
 
Date/Time
EST
Temp
°C
App
Temp
°C
Dew
Point
Rel
Hum
%
Delta-T
°C
Wind Press
QNH
hPa
Press
MSL
hPa
Rain
since 9 am
mm
Dir
 
Spd
km/h
Gust
km/h
Spd
kts
Gust
kts
01/11:30pm 19.0 17.5 15.3 79 2.2 WNW 17 28 9 15 1015.1 1015.1 1.6
01/11:00pm 19.1 17.6 15.2 78 2.3 WNW 17 24 9 13 1015.2 1015.2 1.6
01/10:30pm 19.4 18.3 15.3 77 2.4 WNW 15 28 8 15 1015.1 1015.1 1.6
01/10:00pm 19.2 18.1 15.3 78 2.3 WNW 15 20 8 11 1015.1 1015.1 1.6
01/09:30pm 19.1 19.2 15.6 80 2.1 WNW 9 15 5 8 1014.9 1014.9 1.6
01/09:00pm 19.2 19.3 15.5 79 2.2 WNW 9 15 5 8 1014.6 1014.6 1.6
01/08:30pm 19.5 19.0 15.8 79 2.2 WNW 13 20 7 11 1014.2 1014.2 1.6
01/08:00pm 19.6 19.0 15.7 78 2.3 WNW 13 20 7 11 1013.7 1013.7 1.6
01/07:30pm 19.8 19.3 15.9 78 2.3 NW 13 19 7 10 1013.6 1013.6 1.6
01/07:00pm 20.2 19.7 16.0 77 2.5 NW 13 20 7 11 1013.6 1013.6 1.6
01/06:30pm 20.6 20.2 16.2 76 2.6 NW 13 20 7 11 1013.5 1013.5 1.6
01/06:00pm 20.9 20.9 16.3 75 2.8 NW 11 17 6 9 1013.2 1013.2 1.6
01/05:30pm 21.5 21.6 16.5 73 3.0 NW 11 17 6 9 1013.0 1013.0 1.6
01/05:00pm 21.9 21.3 16.6 72 3.2 NNW 15 24 8 13 1013.2 1013.2 1.6
01/04:30pm 22.0 21.8 16.7 72 3.2 NNW 13 19 7 10 1012.7 1012.7 1.6
01/04:00pm 22.1 21.9 17.5 75 2.8 NNW 15 24 8 13 1012.7 1012.7 1.6
01/03:30pm 22.1 21.5 17.5 75 2.8 NNW 17 24 9 13 1012.7 1012.7 1.6
01/03:00pm 22.1 21.1 17.5 75 2.8 NNW 19 33 10 18 1012.4 1012.4 1.6
01/02:30pm 22.3 21.0 17.2 73 3.1 NNW 20 30 11 16 1012.2 1012.2 1.6
01/02:00pm 22.1 20.7 17.0 73 3.1 NNW 20 32 11 17 1012.4 1012.4 1.6
01/01:30pm 22.0 20.7 17.2 74 3.0 NW 20 33 11 18 1012.9 1012.9 1.6
01/01:00pm 21.4 20.2 17.4 78 2.5 NNW 20 37 11 20 1012.7 1012.7 1.6
01/12:30pm 20.9 20.2 18.3 85 1.6 NW 19 32 10 17 1013.1 1013.1 1.6
01/12:00pm 20.6 20.7 18.4 87 1.4 NNW 15 22 8 12 1013.8 1013.8 1.6
01/11:30am 20.3 21.4 18.8 91 0.9 NW 11 19 6 10 1014.2 1014.2 1.6
01/11:00am 19.7 20.3 18.7 94 0.6 NNW 13 20 7 11 1014.7 1014.7 1.6
01/10:30am 19.1 20.1 18.6 97 0.3 NNW 11 20 6 11 1015.3 1015.3 1.6
01/10:00am 18.5 19.2 18.0 97 0.3 NNW 11 17 6 9 1015.7 1015.7 1.6
01/09:30am 18.4 18.8 18.1 98 0.2 NNW 13 20 7 11 1016.1 1016.0 1.6
01/09:00am 18.5 19.3 18.2 98 0.2 NNW 11 22 6 12 1016.9 1016.8 9.4
01/08:30am 18.4 19.2 18.1 98 0.2 NNW 11 17 6 9 1016.6 1016.5 8.2
01/08:00am 18.5 18.5 18.0 97 0.3 NNW 15 20 8 11 1016.5 1016.4 7.8
01/07:30am 18.6 19.1 18.3 98 0.2 NNW 13 17 7 9 1016.3 1016.2 6.6
01/07:00am 19.0 18.9 18.8 99 0.1 WNW 17 28 9 15 1016.1 1016.0 3.6
01/06:58am 18.8 18.6 18.6 99 0.1 WNW 17 28 9 15 1016.0 1015.9 3.4
01/06:30am 15.4 17.1 15.2 99 0.1 CALM 0 0 0 0 1014.0 1013.9 0.8
01/06:00am 15.4 17.1 15.2 99 0.1 CALM 0 0 0 0 1013.6 1013.5 0.8
01/05:30am 15.2 16.8 15.0 99 0.1 CALM 0 0 0 0 1013.8 1013.7 0.8
01/05:00am 15.3 16.2 15.1 99 0.1 SSE 4 7 2 4 1013.7 1013.6 0.8
01/04:30am 15.2 16.4 15.0 99 0.1 SSE 2 7 1 4 1013.4 1013.3 0.8
01/04:00am 15.2 15.5 15.0 99 0.1 SSE 7 9 4 5 1013.4 1013.3 0.8
01/03:30am 15.4 16.0 15.2 99 0.1 ESE 6 11 3 6 1013.4 1013.3 0.8
01/03:00am 16.0 17.9 15.8 99 0.1 CALM 0 0 0 0 1014.1 1014.0 0.8
01/02:30am 16.2 18.2 16.0 99 0.1 CALM 0 0 0 0 1014.1 1014.0 0.8
01/02:00am 15.9 17.8 15.7 99 0.1 CALM 0 0 0 0 1014.6 1014.5 0.6
01/01:30am 15.8 17.6 15.6 99 0.1 CALM 0 0 0 0 1014.7 1014.6 0.6
01/01:00am 15.7 16.4 15.5 99 0.1 WSW 6 7 3 4 1015.2 1015.1 0.6
01/12:30am 15.6 16.2 15.4 99 0.1 WSW 6 7 3 4 1015.5 1015.4 0.6
01/12:00am 15.7 16.8 15.5 99 0.1 WSW 4 6 2 3 1015.8 1015.7 0.6
 
Date/Time
EST
Temp
°C
App
Temp
°C
Dew
Point
Rel
Hum
%
Delta-T
°C
Wind Press
QNH
hPa
Press
MSL
hPa
Rain
since 9 am
mm
Dir
 
Spd
km/h
Gust
km/h
Spd
kts
Gust
kts
30/11:30pm 15.5 17.2 15.3 99 0.1 CALM 0 0 0 0 1016.0 1015.9 0.6
30/11:00pm 15.4 16.7 15.2 99 0.1 W 2 6 1 3 1016.6 1016.5 0.6
30/10:30pm 14.5 14.6 14.0 97 0.3 SSE 6 7 3 4 1016.8 1016.7 0.6
30/10:00pm 15.8 17.5 15.3 97 0.3 CALM 0 0 0 0 1017.2 1017.1 0.6
30/09:30pm 16.8 19.0 16.5 98 0.2 CALM 0 4 0 2 1017.3 1017.2 0.6
30/09:00pm 17.2 18.3 16.7 97 0.3 N 6 7 3 4 1017.4 1017.3 0.6
30/08:30pm 17.7 19.0 17.2 97 0.3 NE 6 7 3 4 1017.3 1017.2 0.6
30/08:00pm 17.9 20.0 17.3 96 0.4 N 2 6 1 3 1017.7 1017.6 0.6
30/07:30pm 18.3 20.5 17.5 95 0.5 NNE 2 6 1 3 1017.3 1017.2 0.6
30/07:00pm 18.6 19.8 17.4 93 0.7 NNE 7 11 4 6 1017.2 1017.1 0.6
30/06:30pm 19.3 20.4 18.0 92 0.8 N 9 13 5 7 1017.0 1016.9 0.6
30/06:00pm 19.4 20.8 17.9 91 0.9 N 7 11 4 6 1017.2 1017.1 0.6
30/05:30pm 19.5 21.0 18.0 91 0.9 N 7 9 4 5 1017.0 1016.9 0.6
30/05:00pm 19.7 20.7 17.8 89 1.2 N 9 11 5 6 1016.7 1016.6 0.6
30/04:30pm 19.6 20.7 18.1 91 0.9 N 9 15 5 8 1016.7 1016.6 0.6
30/04:00pm 19.6 20.7 18.1 91 0.9 NNW 9 17 5 9 1016.6 1016.5 0.6
30/03:30pm 19.3 19.6 18.0 92 0.8 NNW 13 17 7 9 1016.5 1016.4 0.6
30/03:00pm 19.4 19.3 17.9 91 0.9 NNW 15 20 8 11 1016.4 1016.3 0.6
30/02:30pm 19.7 19.5 18.4 92 0.8 N 17 24 9 13 1016.1 1016.0 0.6
30/02:00pm 19.5 19.9 18.2 92 0.8 N 13 20 7 11 1016.3 1016.2 0.6
30/01:30pm 19.8 20.1 17.8 88 1.2 NNW 13 19 7 10 1016.6 1016.5 0.2
30/01:00pm 20.4 20.2 16.6 79 2.3 NW 13 26 7 14 1017.1 1017.0 0.0
30/12:30pm 21.1 21.0 16.1 73 3.0 NW 11 17 6 9 1017.5 1017.4 0.0
30/12:00pm 21.1 21.9 16.3 74 2.9 NNW 7 15 4 8 1017.9 1017.8 0.0
30/11:30am 21.1 20.5 15.6 71 3.3 NNW 13 20 7 11 1018.5 1018.4 0.0
30/11:00am 21.5 22.4 16.0 71 3.3 N 6 11 3 6 1018.9 1018.8 0.0
30/10:30am 20.5 21.0 16.5 78 2.4 N 9 11 5 6 1019.0 1018.9 0.0
30/10:00am 20.0 20.4 16.4 80 2.2 N 9 11 5 6 1019.2 1019.1 0.0
30/09:30am 19.5 20.2 16.2 81 2.0 N 7 9 4 5 1019.3 1019.2 0.0
30/09:00am 18.3 19.2 16.5 89 1.1 N 7 11 4 6 1019.4 1019.3 0.0
30/08:30am 17.7 19.6 16.6 93 0.7 NNW 2 7 1 4 1019.4 1019.3 0.0
30/08:00am 16.5 17.2 15.7 95 0.5 NE 6 7 3 4 1019.4 1019.3 0.0
30/07:30am 15.5 17.1 15.0 97 0.3 CALM 0 0 0 0 1019.3 1019.2 0.0
30/07:00am 14.9 15.2 14.4 97 0.3 WSW 6 6 3 3 1018.9 1018.8 0.0
30/06:30am 14.7 16.0 14.1 96 0.3 CALM 0 0 0 0 1018.5 1018.4 0.0
30/06:00am 14.5 15.8 14.0 97 0.3 CALM 0 6 0 3 1018.2 1018.1 0.0
30/05:30am 14.4 14.5 13.9 97 0.3 W 6 7 3 4 1018.1 1018.0 0.0
30/05:00am 14.3 15.5 13.7 96 0.3 CALM 0 0 0 0 1018.1 1018.0 0.0
30/04:30am 14.3 15.5 13.8 97 0.3 CALM 0 0 0 0 1017.7 1017.6 0.0
30/04:00am 13.8 14.8 13.2 96 0.3 CALM 0 0 0 0 1017.6 1017.5 0.0
30/03:30am 14.2 15.3 13.6 96 0.3 CALM 0 0 0 0 1017.7 1017.6 0.0
30/03:00am 14.4 15.6 13.8 96 0.3 CALM 0 0 0 0 1017.5 1017.4 0.0
30/02:30am 14.1 15.2 13.5 96 0.3 CALM 0 6 0 3 1017.6 1017.5 0.0
30/02:00am 14.0 15.1 13.4 96 0.3 CALM 0 0 0 0 1017.7 1017.6 0.0
30/01:30am 14.2 15.3 13.6 96 0.3 CALM 0 6 0 3 1018.0 1017.9 0.0
30/01:00am 14.5 14.9 13.7 95 0.4 WSW 4 7 2 4 1018.1 1018.0 0.0
30/12:30am 15.0 15.9 14.0 94 0.6 SW 2 7 1 4 1018.2 1018.1 0.0
30/12:00am 15.5 15.8 14.4 93 0.6 SW 6 9 3 5 1018.2 1018.1 0.0
 
Date/Time
EST
Temp
°C
App
Temp
°C
Dew
Point
Rel
Hum
%
Delta-T
°C
Wind Press
QNH
hPa
Press
MSL
hPa
Rain
since 9 am
mm
Dir
 
Spd
km/h
Gust
km/h
Spd
kts
Gust
kts
29/11:30pm 15.8 17.3 14.7 93 0.6 CALM 0 0 0 0 1018.3 1018.2 0.0
29/11:00pm 15.7 16.7 14.4 92 0.7 SW 2 7 1 4 1018.8 1018.7 0.0
29/10:30pm 16.8 17.2 15.3 91 0.9 SW 7 9 4 5 1019.0 1018.9 0.0
29/10:00pm 17.3 16.7 15.6 90 1.0 WSW 13 17 7 9 1019.2 1019.1 0.0
29/09:30pm 17.8 18.8 15.4 86 1.4 ESE 4 7 2 4 1018.9 1018.8 0.0
29/09:00pm 18.0 18.2 15.8 87 1.3 SW 9 11 5 6 1019.0 1018.9 0.0
29/08:30pm 17.9 17.6 15.5 86 1.4 WSW 11 15 6 8 1018.9 1018.8 0.0
29/08:00pm 18.0 19.5 14.7 81 1.9 CALM 0 0 0 0 1018.7 1018.6 0.0
29/07:30pm 18.7 18.5 14.6 77 2.4 SW 9 13 5 7 1018.8 1018.7 0.0
29/07:00pm 19.7 20.0 15.1 75 2.7 SW 7 11 4 6 1018.8 1018.7 0.0
29/06:30pm 19.9 20.4 15.1 74 2.8 SW 6 7 3 4 1018.8 1018.7 0.0
29/06:00pm 21.0 21.3 14.9 68 3.6 SW 7 11 4 6 1018.8 1018.7 0.0
29/05:30pm 22.1 23.5 14.5 62 4.5 CALM 0 0 0 0 1018.2 1018.1 0.0
29/05:00pm 23.8 24.2 14.8 57 5.4 E 6 9 3 5 1018.1 1018.0 0.0
29/04:30pm 25.0 25.2 14.8 53 6.1 ENE 7 9 4 5 1018.2 1018.1 0.0
29/04:00pm 25.5 24.5 14.6 51 6.5 ENE 13 17 7 9 1018.2 1018.1 0.0
29/03:30pm 26.4 24.9 13.2 44 7.8 ENE 13 17 7 9 1017.7 1017.6 0.0
29/03:00pm 27.0 25.1 11.9 39 8.7 NE 13 17 7 9 1018.3 1018.2 0.0
29/02:30pm 27.3 26.1 11.7 37 9.0 ENE 9 15 5 8 1018.1 1018.0 0.0
29/02:00pm 27.9 27.4 11.9 37 9.2 N 6 13 3 7 1018.2 1018.1 0.0

Other Formats:

Comma delimited format used in spreadsheet applications
http://www.bom.gov.au/fwo/IDN60801/IDN60801.95771.axf

JavaScript Object Notation format (JSON) in row-major order
http://www.bom.gov.au/fwo/IDN60801/IDN60801.95771.json